createdAt,value
2022-08-26T00:00:11.949Z,32.69
2022-08-26T00:00:34.356Z,32.71
2022-08-26T00:00:58.407Z,32.67
2022-08-26T00:01:28.978Z,32.64
2022-08-26T00:01:52.516Z,32.53
2022-08-26T00:02:15.957Z,32.55
2022-08-26T00:02:41.116Z,32.58
2022-08-26T00:03:04.263Z,32.60
2022-08-26T00:03:29.157Z,32.60
2022-08-26T00:03:51.070Z,32.53
2022-08-26T00:04:13.017Z,32.53
2022-08-26T00:04:35.762Z,32.54
2022-08-26T00:04:57.452Z,32.55
2022-08-26T00:05:19.327Z,32.57
2022-08-26T00:05:42.259Z,32.57
2022-08-26T00:06:05.298Z,32.57
2022-08-26T00:06:27.497Z,32.56
2022-08-26T00:06:49.146Z,32.58
2022-08-26T00:07:13.159Z,32.52
2022-08-26T00:07:34.840Z,32.52
2022-08-26T00:07:57.223Z,32.49
2022-08-26T00:08:21.188Z,32.52
2022-08-26T00:08:44.698Z,32.53
2022-08-26T00:09:09.044Z,32.52
2022-08-26T00:09:31.450Z,32.52
2022-08-26T00:09:54.453Z,32.49
2022-08-26T00:10:18.689Z,32.48
2022-08-26T00:10:40.861Z,32.48
2022-08-26T00:11:04.489Z,32.48
2022-08-26T00:11:27.200Z,32.46
2022-08-26T00:11:49.272Z,32.45
2022-08-26T00:12:13.806Z,32.42
2022-08-26T00:12:37.505Z,32.37
2022-08-26T00:12:59.513Z,32.37
2022-08-26T00:13:21.243Z,32.40
2022-08-26T00:13:48.110Z,32.33
2022-08-26T00:14:11.750Z,32.30
2022-08-26T00:14:33.485Z,32.32
2022-08-26T00:14:55.144Z,32.31
2022-08-26T00:15:21.237Z,32.31
2022-08-26T00:15:43.054Z,32.30
2022-08-26T00:16:06.897Z,32.28
2022-08-26T00:16:31.236Z,32.28
2022-08-26T00:16:53.032Z,32.24
2022-08-26T00:17:17.031Z,32.26
2022-08-26T00:17:40.248Z,32.25
2022-08-26T00:18:03.138Z,32.23
2022-08-26T00:18:40.809Z,32.20
2022-08-26T00:19:02.645Z,32.22
2022-08-26T00:19:25.371Z,32.21
2022-08-26T00:19:47.097Z,32.21
2022-08-26T00:20:10.930Z,32.21
2022-08-26T00:20:34.057Z,32.11
2022-08-26T00:20:56.968Z,32.16
2022-08-26T00:21:19.004Z,32.12
2022-08-26T00:21:40.637Z,32.14
2022-08-26T00:22:02.384Z,32.13
2022-08-26T00:22:26.413Z,32.11
2022-08-26T00:22:49.399Z,32.10
2022-08-26T00:23:11.447Z,32.08
2022-08-26T00:23:33.421Z,32.12
2022-08-26T00:23:56.130Z,32.12
2022-08-26T00:24:19.375Z,32.10
2022-08-26T00:24:41.178Z,32.08
2022-08-26T00:25:10.812Z,32.03
2022-08-26T00:25:32.788Z,32.04
2022-08-26T00:25:55.769Z,32.04
2022-08-26T00:26:18.847Z,32.03
2022-08-26T00:26:42.703Z,32.01
2022-08-26T00:27:06.298Z,31.98
2022-08-26T00:27:28.198Z,31.94
2022-08-26T00:27:50.428Z,31.95
2022-08-26T00:28:14.981Z,31.93
2022-08-26T00:28:41.277Z,31.91
2022-08-26T00:29:03.866Z,31.88
2022-08-26T00:29:26.951Z,31.90
2022-08-26T00:29:48.612Z,31.86
2022-08-26T00:30:15.195Z,31.86
2022-08-26T00:30:37.462Z,31.84
2022-08-26T00:30:59.517Z,31.79
2022-08-26T00:32:06.487Z,31.72
2022-08-26T00:32:28.503Z,31.64
2022-08-26T00:32:50.473Z,31.69
2022-08-26T00:33:12.179Z,31.69
2022-08-26T00:33:35.029Z,31.69
2022-08-26T00:33:56.724Z,31.65
2022-08-26T00:34:19.631Z,31.65
2022-08-26T00:34:41.636Z,31.64
2022-08-26T00:35:04.530Z,31.65
2022-08-26T00:35:28.642Z,31.67
2022-08-26T00:35:50.635Z,31.63
2022-08-26T00:36:19.947Z,31.60
2022-08-26T00:36:42.728Z,31.55
2022-08-26T00:37:08.940Z,31.58
2022-08-26T00:37:36.476Z,31.61
2022-08-26T00:37:58.923Z,31.58
2022-08-26T00:38:22.122Z,31.17
2022-08-26T00:38:45.704Z,31.59
2022-08-26T00:39:08.603Z,31.60
2022-08-26T00:39:30.938Z,31.58
2022-08-26T00:39:52.736Z,31.56
2022-08-26T00:40:18.547Z,31.52
2022-08-26T00:40:46.136Z,31.56
2022-08-26T00:41:07.841Z,31.54
2022-08-26T00:41:29.995Z,31.51
2022-08-26T00:41:51.773Z,31.54
2022-08-26T00:42:13.785Z,31.57
2022-08-26T00:42:36.676Z,31.55
2022-08-26T00:43:00.453Z,31.47
2022-08-26T00:43:23.831Z,31.55
2022-08-26T00:43:47.216Z,31.55
2022-08-26T00:44:11.659Z,31.56
2022-08-26T00:44:33.546Z,31.47
2022-08-26T00:44:55.444Z,31.32
2022-08-26T00:45:17.464Z,31.51
2022-08-26T00:45:44.709Z,31.24
2022-08-26T00:46:11.034Z,31.50
2022-08-26T00:46:37.134Z,31.50
2022-08-26T00:47:04.547Z,31.50
2022-08-26T00:47:32.032Z,31.49
2022-08-26T00:47:57.485Z,31.42
2022-08-26T00:48:22.764Z,31.45
2022-08-26T00:48:49.282Z,31.37
2022-08-26T00:49:15.950Z,31.38
2022-08-26T00:49:41.025Z,31.39
2022-08-26T00:50:09.365Z,31.31
2022-08-26T00:50:37.002Z,31.19
2022-08-26T00:51:04.298Z,31.32
2022-08-26T00:51:29.749Z,31.22
2022-08-26T00:51:55.541Z,31.26
2022-08-26T00:52:21.676Z,31.18
2022-08-26T00:52:46.544Z,31.24
2022-08-26T00:53:21.510Z,31.15
2022-08-26T00:53:51.589Z,31.22
2022-08-26T00:54:14.066Z,31.13
2022-08-26T00:54:45.121Z,31.18
2022-08-26T00:55:11.740Z,31.10
2022-08-26T00:55:42.998Z,31.14
2022-08-26T00:56:10.032Z,31.15
2022-08-26T00:56:38.210Z,31.14
2022-08-26T00:57:03.193Z,31.14
2022-08-26T00:57:26.475Z,31.14
2022-08-26T00:57:50.337Z,31.14
2022-08-26T00:58:12.067Z,30.98
2022-08-26T00:58:35.657Z,31.01
2022-08-26T00:59:01.373Z,30.98
2022-08-26T00:59:24.484Z,31.06
2022-08-26T00:59:50.702Z,30.95
2022-08-26T01:00:17.523Z,31.04
2022-08-26T01:00:39.261Z,31.04
2022-08-26T01:01:01.191Z,31.01
2022-08-26T01:01:23.329Z,30.95
2022-08-26T01:01:46.485Z,30.97
2022-08-26T01:02:20.888Z,30.77
2022-08-26T01:02:46.729Z,30.94
2022-08-26T01:03:11.565Z,30.95
2022-08-26T01:03:36.284Z,30.98
2022-08-26T01:03:58.970Z,30.98
2022-08-26T01:04:23.182Z,30.99
2022-08-26T01:04:46.929Z,30.95
2022-08-26T01:05:11.980Z,30.95
2022-08-26T01:05:33.846Z,30.97
2022-08-26T01:05:59.812Z,30.98
2022-08-26T01:06:22.371Z,30.92
2022-08-26T01:06:48.613Z,30.95
2022-08-26T01:07:10.590Z,30.93
2022-08-26T01:07:34.735Z,30.93
2022-08-26T01:07:58.230Z,30.97
2022-08-26T01:08:21.527Z,30.96
2022-08-26T01:08:46.254Z,30.96
2022-08-26T01:09:08.185Z,30.97
2022-08-26T01:09:31.616Z,30.99
2022-08-26T01:09:53.724Z,30.97
2022-08-26T01:10:19.774Z,30.86
2022-08-26T01:10:43.187Z,30.87
2022-08-26T01:11:06.356Z,30.91
2022-08-26T01:11:30.023Z,30.71
2022-08-26T01:11:56.039Z,30.89
2022-08-26T01:12:21.995Z,30.88
2022-08-26T01:12:48.863Z,30.95
2022-08-26T01:13:12.511Z,30.64
2022-08-26T01:13:37.807Z,30.88
2022-08-26T01:14:02.723Z,30.87
2022-08-26T01:14:29.861Z,30.44
2022-08-26T01:14:53.154Z,30.87
2022-08-26T01:15:19.773Z,30.77
2022-08-26T01:15:45.170Z,30.86
2022-08-26T01:16:11.274Z,30.89
2022-08-26T01:16:35.300Z,30.65
2022-08-26T01:16:57.333Z,30.87
2022-08-26T01:17:20.269Z,30.80
2022-08-26T01:17:42.137Z,30.84
2022-08-26T01:18:08.633Z,30.89
2022-08-26T01:18:31.517Z,30.65
2022-08-26T01:18:58.531Z,30.88
2022-08-26T01:19:24.959Z,30.88
2022-08-26T01:19:52.255Z,30.88
2022-08-26T01:20:25.747Z,30.87
2022-08-26T01:20:58.021Z,30.87
2022-08-26T01:21:29.548Z,30.89
2022-08-26T01:21:57.888Z,30.82
2022-08-26T01:22:28.118Z,30.80
2022-08-26T01:22:56.524Z,30.85
2022-08-26T01:23:19.297Z,30.86
2022-08-26T01:23:47.801Z,30.87
2022-08-26T01:24:10.629Z,30.88
2022-08-26T01:24:32.558Z,30.88
2022-08-26T01:24:55.545Z,30.82
2022-08-26T01:25:19.438Z,30.85
2022-08-26T01:25:46.847Z,30.83
2022-08-26T01:26:19.803Z,30.86
2022-08-26T01:26:44.720Z,30.73
2022-08-26T01:27:09.689Z,30.71
2022-08-26T01:27:32.973Z,30.81
2022-08-26T01:27:57.949Z,30.87
2022-08-26T01:28:23.992Z,30.88
2022-08-26T01:28:50.671Z,30.88
2022-08-26T01:29:18.884Z,30.86
2022-08-26T01:29:45.379Z,30.86
2022-08-26T01:30:08.229Z,30.86
2022-08-26T01:30:31.263Z,30.85
2022-08-26T01:30:55.144Z,30.83
2022-08-26T01:31:21.692Z,30.81
2022-08-26T01:31:47.170Z,30.82
2022-08-26T01:32:11.617Z,30.79
2022-08-26T01:32:36.190Z,30.83
2022-08-26T01:33:05.016Z,30.84
2022-08-26T01:33:31.501Z,30.81
2022-08-26T01:34:10.854Z,30.45
2022-08-26T01:34:36.866Z,30.84
2022-08-26T01:35:00.821Z,30.81
2022-08-26T01:35:23.057Z,30.82
2022-08-26T01:35:45.471Z,30.81
2022-08-26T01:36:09.201Z,30.56
2022-08-26T01:36:31.262Z,30.80
2022-08-26T01:36:58.680Z,30.80
2022-08-26T01:37:24.855Z,30.82
2022-08-26T01:37:49.531Z,30.82
2022-08-26T01:38:13.698Z,30.82
2022-08-26T01:38:35.555Z,30.80
2022-08-26T01:38:58.617Z,30.82
2022-08-26T01:39:20.916Z,30.73
2022-08-26T01:39:46.802Z,30.79
2022-08-26T01:40:14.355Z,30.78
2022-08-26T01:40:43.865Z,30.79
2022-08-26T01:41:16.188Z,30.79
2022-08-26T01:41:44.040Z,30.76
2022-08-26T01:42:11.001Z,30.74
2022-08-26T01:42:34.480Z,30.69
2022-08-26T01:42:56.453Z,30.59
2022-08-26T01:43:22.478Z,30.50
2022-08-26T01:43:47.429Z,30.68
2022-08-26T01:44:15.763Z,30.67
2022-08-26T01:44:42.184Z,30.71
2022-08-26T01:45:11.175Z,30.72
2022-08-26T01:45:36.152Z,30.67
2022-08-26T01:45:58.371Z,30.53
2022-08-26T01:46:23.931Z,30.68
2022-08-26T01:46:48.930Z,30.68
2022-08-26T01:47:13.667Z,30.59
2022-08-26T01:47:36.466Z,30.69
2022-08-26T01:48:02.796Z,30.69
2022-08-26T01:48:28.367Z,30.68
2022-08-26T01:48:54.357Z,30.22
2022-08-26T01:49:18.013Z,30.69
2022-08-26T01:49:41.159Z,30.46
2022-08-26T01:50:07.649Z,30.60
2022-08-26T01:50:33.332Z,30.66
2022-08-26T01:50:56.351Z,30.65
2022-08-26T01:51:20.274Z,30.59
2022-08-26T01:51:44.332Z,30.60
2022-08-26T01:52:08.456Z,30.58
2022-08-26T01:52:35.795Z,30.52
2022-08-26T01:53:01.190Z,30.55
2022-08-26T01:53:25.403Z,30.54
2022-08-26T01:53:47.437Z,30.56
2022-08-26T01:54:11.987Z,30.56
2022-08-26T01:54:36.053Z,30.55
2022-08-26T01:54:59.801Z,30.58
2022-08-26T01:55:29.330Z,30.51
2022-08-26T01:55:59.463Z,30.52
2022-08-26T01:56:22.159Z,30.56
2022-08-26T01:56:45.684Z,30.54
2022-08-26T01:57:08.939Z,30.55
2022-08-26T01:57:31.656Z,30.48
2022-08-26T01:57:56.378Z,30.47
2022-08-26T01:58:23.136Z,30.51
2022-08-26T01:58:49.903Z,30.50
2022-08-26T01:59:16.958Z,30.43
2022-08-26T01:59:39.094Z,30.40
2022-08-26T02:00:02.769Z,30.46
2022-08-26T02:00:36.505Z,30.52
2022-08-26T02:00:59.026Z,30.40
2022-08-26T02:01:22.513Z,30.40
2022-08-26T02:01:51.260Z,30.54
2022-08-26T02:02:15.952Z,30.53
2022-08-26T02:02:37.794Z,30.52
2022-08-26T02:03:14.816Z,30.50
2022-08-26T02:03:46.591Z,30.48
2022-08-26T02:04:15.991Z,30.40
2022-08-26T02:04:43.447Z,30.43
2022-08-26T02:05:10.949Z,30.35
2022-08-26T02:05:32.846Z,30.43
2022-08-26T02:05:58.949Z,30.39
2022-08-26T02:06:21.210Z,30.45
2022-08-26T02:06:45.361Z,30.50
2022-08-26T02:07:09.552Z,30.46
2022-08-26T02:07:33.287Z,30.48
2022-08-26T02:07:55.156Z,30.45
2022-08-26T02:08:18.996Z,30.46
2022-08-26T02:08:51.698Z,30.47
2022-08-26T02:09:14.695Z,30.48
2022-08-26T02:09:41.406Z,30.47
2022-08-26T02:10:05.145Z,30.43
2022-08-26T02:10:26.896Z,30.22
2022-08-26T02:10:48.763Z,30.43
2022-08-26T02:11:11.216Z,30.34
2022-08-26T02:11:34.125Z,30.39
2022-08-26T02:12:01.685Z,30.38
2022-08-26T02:12:23.755Z,30.32
2022-08-26T02:12:47.835Z,30.37
2022-08-26T02:13:11.577Z,30.35
2022-08-26T02:13:42.680Z,30.35
2022-08-26T02:14:08.565Z,30.20
2022-08-26T02:14:34.610Z,30.33
2022-08-26T02:14:59.613Z,30.33
2022-08-26T02:15:23.725Z,30.21
2022-08-26T02:15:46.240Z,30.31
2022-08-26T02:16:10.963Z,30.13
2022-08-26T02:16:37.727Z,30.19
2022-08-26T02:17:00.899Z,30.23
2022-08-26T02:17:29.202Z,30.23
2022-08-26T02:17:53.218Z,30.22
2022-08-26T02:18:15.044Z,30.24
2022-08-26T02:18:40.347Z,30.24
2022-08-26T02:19:04.123Z,30.22
2022-08-26T02:19:29.097Z,30.14
2022-08-26T02:19:51.085Z,30.22
2022-08-26T02:20:17.327Z,30.20
2022-08-26T02:20:39.668Z,30.14
2022-08-26T02:21:02.793Z,30.19
2022-08-26T02:21:29.906Z,30.22
2022-08-26T02:21:53.659Z,30.21
2022-08-26T02:22:19.815Z,30.14
2022-08-26T02:22:42.813Z,30.15
2022-08-26T02:23:07.724Z,30.12
2022-08-26T02:23:29.608Z,30.13
2022-08-26T02:23:56.138Z,30.12
2022-08-26T02:24:20.422Z,30.14
2022-08-26T02:24:49.531Z,30.09
2022-08-26T02:25:17.539Z,30.06
2022-08-26T02:25:47.105Z,30.07
2022-08-26T02:26:12.215Z,30.09
2022-08-26T02:26:40.657Z,30.08
2022-08-26T02:27:02.422Z,30.08
2022-08-26T02:27:26.465Z,30.09
2022-08-26T02:27:50.325Z,30.11
2022-08-26T02:28:14.382Z,30.01
2022-08-26T02:28:40.577Z,29.98
2022-08-26T02:29:07.543Z,30.13
2022-08-26T02:29:32.939Z,30.09
2022-08-26T02:29:59.858Z,30.12
2022-08-26T02:30:26.873Z,30.13
2022-08-26T02:30:49.836Z,30.14
2022-08-26T02:31:13.044Z,29.98
2022-08-26T02:31:35.861Z,30.16
2022-08-26T02:31:57.845Z,30.15
2022-08-26T02:32:19.670Z,29.94
2022-08-26T02:32:41.997Z,30.15
2022-08-26T02:33:05.750Z,30.08
2022-08-26T02:33:28.250Z,30.16
2022-08-26T02:33:50.079Z,29.70
2022-08-26T02:34:13.679Z,30.15
2022-08-26T02:34:38.115Z,30.13
2022-08-26T02:35:00.027Z,30.13
2022-08-26T02:35:23.557Z,30.10
2022-08-26T02:35:47.732Z,30.09
2022-08-26T02:36:09.881Z,30.08
2022-08-26T02:36:33.940Z,30.05
2022-08-26T02:36:56.965Z,29.74
2022-08-26T02:37:19.073Z,29.97
2022-08-26T02:37:45.691Z,29.69
2022-08-26T02:38:10.035Z,29.92
2022-08-26T02:38:33.073Z,29.95
2022-08-26T02:38:56.420Z,29.92
2022-08-26T02:39:22.221Z,29.89
2022-08-26T02:39:44.514Z,29.89
2022-08-26T02:40:08.393Z,29.88
2022-08-26T02:40:32.434Z,29.82
2022-08-26T02:40:55.209Z,29.84
2022-08-26T02:41:17.531Z,29.67
2022-08-26T02:41:44.990Z,29.60
2022-08-26T02:42:07.337Z,29.90
2022-08-26T02:42:30.438Z,29.74
2022-08-26T02:42:56.086Z,29.94
2022-08-26T02:43:19.061Z,29.73
2022-08-26T02:43:54.335Z,29.93
2022-08-26T02:44:16.010Z,29.89
2022-08-26T02:44:39.040Z,29.95
2022-08-26T02:45:00.817Z,29.94
2022-08-26T02:45:23.944Z,29.68
2022-08-26T02:45:45.974Z,29.88
2022-08-26T02:46:07.674Z,29.77
2022-08-26T02:46:31.601Z,29.91
2022-08-26T02:46:55.379Z,29.92
2022-08-26T02:47:18.176Z,29.91
2022-08-26T02:47:40.029Z,29.85
2022-08-26T02:48:09.126Z,29.77
2022-08-26T02:48:33.078Z,29.98
2022-08-26T02:48:54.959Z,29.95
2022-08-26T02:49:17.231Z,29.96
2022-08-26T02:49:41.581Z,29.84
2022-08-26T02:50:08.383Z,29.80
2022-08-26T02:50:30.226Z,29.92
2022-08-26T02:50:51.976Z,30.00
2022-08-26T02:51:13.848Z,29.99
2022-08-26T02:51:36.891Z,30.00
2022-08-26T02:52:01.940Z,29.82
2022-08-26T02:52:24.031Z,29.98
2022-08-26T02:52:45.839Z,29.99
2022-08-26T02:53:09.465Z,29.97
2022-08-26T02:53:31.754Z,29.98
2022-08-26T02:53:54.061Z,29.94
2022-08-26T02:54:21.240Z,29.99
2022-08-26T02:54:44.207Z,29.73
2022-08-26T02:55:08.117Z,29.96
2022-08-26T02:55:30.158Z,29.94
2022-08-26T02:55:51.997Z,29.96
2022-08-26T02:56:14.703Z,29.96
2022-08-26T02:56:36.572Z,29.97
2022-08-26T02:56:58.368Z,29.97
2022-08-26T02:57:20.553Z,29.94
2022-08-26T02:57:45.098Z,29.93
2022-08-26T02:58:06.897Z,29.95
2022-08-26T02:58:28.807Z,29.83
2022-08-26T02:58:50.601Z,29.95
2022-08-26T02:59:13.513Z,29.94
2022-08-26T02:59:35.940Z,29.93
2022-08-26T02:59:57.921Z,29.91
2022-08-26T03:00:22.506Z,29.89
2022-08-26T03:00:52.915Z,29.89
2022-08-26T03:01:23.952Z,29.87
2022-08-26T03:01:46.535Z,29.77
2022-08-26T03:02:10.678Z,29.88
2022-08-26T03:02:33.521Z,29.87
2022-08-26T03:02:55.541Z,29.89
2022-08-26T03:03:17.238Z,29.89
2022-08-26T03:03:40.253Z,29.88
2022-08-26T03:04:05.854Z,29.75
2022-08-26T03:04:27.973Z,29.80
2022-08-26T03:04:58.098Z,29.73
2022-08-26T03:05:24.816Z,29.67
2022-08-26T03:05:47.621Z,29.76
2022-08-26T03:06:09.357Z,29.76
2022-08-26T03:06:31.061Z,29.71
2022-08-26T03:06:53.131Z,29.77
2022-08-26T03:07:18.063Z,29.78
2022-08-26T03:07:40.571Z,29.80
2022-08-26T03:08:02.773Z,29.72
2022-08-26T03:08:25.519Z,29.66
2022-08-26T03:08:47.833Z,29.76
2022-08-26T03:09:09.606Z,29.74
2022-08-26T03:09:32.979Z,29.72
2022-08-26T03:09:55.774Z,29.64
2022-08-26T03:10:19.207Z,29.56
2022-08-26T03:10:41.045Z,29.75
2022-08-26T03:11:04.266Z,29.58
2022-08-26T03:11:32.258Z,29.73
2022-08-26T03:11:55.297Z,29.78
2022-08-26T03:12:17.278Z,29.81
2022-08-26T03:12:41.895Z,29.66
2022-08-26T03:13:05.190Z,29.68
2022-08-26T03:13:27.084Z,29.74
2022-08-26T03:13:49.449Z,29.61
2022-08-26T03:14:13.157Z,29.67
2022-08-26T03:14:34.912Z,29.65
2022-08-26T03:14:56.724Z,29.44
2022-08-26T03:15:19.829Z,29.51
2022-08-26T03:15:42.770Z,29.61
2022-08-26T03:16:05.402Z,29.56
2022-08-26T03:16:32.368Z,29.57
2022-08-26T03:16:54.670Z,29.57
2022-08-26T03:17:16.404Z,29.56
2022-08-26T03:17:39.157Z,29.47
2022-08-26T03:18:02.482Z,29.54
2022-08-26T03:18:24.192Z,29.42
2022-08-26T03:18:47.031Z,29.55
2022-08-26T03:19:15.188Z,29.55
2022-08-26T03:19:39.688Z,29.46
2022-08-26T03:20:04.221Z,29.11
2022-08-26T03:20:25.968Z,29.58
2022-08-26T03:20:48.708Z,29.57
2022-08-26T03:21:13.476Z,29.55
2022-08-26T03:21:36.911Z,29.44
2022-08-26T03:21:59.647Z,29.41
2022-08-26T03:22:21.611Z,29.48
2022-08-26T03:22:46.158Z,29.53
2022-08-26T03:23:09.049Z,29.55
2022-08-26T03:23:31.193Z,29.38
2022-08-26T03:23:54.189Z,29.29
2022-08-26T03:24:20.669Z,29.58
2022-08-26T03:24:46.224Z,29.57
2022-08-26T03:25:11.451Z,29.60
2022-08-26T03:25:33.284Z,29.47
2022-08-26T03:25:55.960Z,29.60
2022-08-26T03:26:17.844Z,29.39
2022-08-26T03:26:40.127Z,29.53
2022-08-26T03:27:14.391Z,29.52
2022-08-26T03:27:37.508Z,29.55
2022-08-26T03:27:59.521Z,29.36
2022-08-26T03:28:21.421Z,29.55
2022-08-26T03:28:58.079Z,29.58
2022-08-26T03:29:38.507Z,29.60
2022-08-26T03:30:19.670Z,29.55
2022-08-26T03:30:44.862Z,29.54
2022-08-26T03:31:08.490Z,29.48
2022-08-26T03:31:30.299Z,29.50
2022-08-26T03:31:52.142Z,29.49
2022-08-26T03:32:16.912Z,29.51
2022-08-26T03:32:39.222Z,29.48
2022-08-26T03:33:04.903Z,29.52
2022-08-26T03:33:27.377Z,29.51
2022-08-26T03:33:49.091Z,29.30
2022-08-26T03:34:14.657Z,29.49
2022-08-26T03:34:36.468Z,29.40
2022-08-26T03:34:58.687Z,29.41
2022-08-26T03:35:20.532Z,29.46
2022-08-26T03:35:47.693Z,29.54
2022-08-26T03:36:13.386Z,29.38
2022-08-26T03:36:36.215Z,29.55
2022-08-26T03:36:57.914Z,29.44
2022-08-26T03:37:21.591Z,29.54
2022-08-26T03:37:44.455Z,29.56
2022-08-26T03:38:08.195Z,29.53
2022-08-26T03:38:29.996Z,29.53
2022-08-26T03:38:51.832Z,29.55
2022-08-26T03:39:14.209Z,29.57
2022-08-26T03:39:37.084Z,29.59
2022-08-26T03:40:01.057Z,29.60
2022-08-26T03:40:23.147Z,29.24
2022-08-26T03:40:45.876Z,29.65
2022-08-26T03:41:08.803Z,29.66
2022-08-26T03:41:32.560Z,29.65
2022-08-26T03:41:55.458Z,29.51
2022-08-26T03:42:18.349Z,29.65
2022-08-26T03:42:45.448Z,29.61
2022-08-26T03:43:09.736Z,29.65
2022-08-26T03:43:32.040Z,29.67
2022-08-26T03:43:56.481Z,29.67
2022-08-26T03:44:23.672Z,29.68
2022-08-26T03:44:46.847Z,29.64
2022-08-26T03:45:10.429Z,29.65
2022-08-26T03:45:32.585Z,29.65
2022-08-26T03:45:55.341Z,29.68
2022-08-26T03:46:18.188Z,29.69
2022-08-26T03:46:41.052Z,29.69
2022-08-26T03:47:03.017Z,29.63
2022-08-26T03:47:28.568Z,29.71
2022-08-26T03:47:50.232Z,29.72
2022-08-26T03:48:14.814Z,29.53
2022-08-26T03:48:38.143Z,29.69
2022-08-26T03:49:01.154Z,29.71
2022-08-26T03:49:22.885Z,29.58
2022-08-26T03:49:44.777Z,29.70
2022-08-26T03:50:08.921Z,29.70
2022-08-26T03:50:34.399Z,29.72
2022-08-26T03:50:57.642Z,29.73
2022-08-26T03:51:19.627Z,29.74
2022-08-26T03:51:41.564Z,29.73
2022-08-26T03:52:06.026Z,29.64
2022-08-26T03:52:28.152Z,29.76
2022-08-26T03:52:51.526Z,29.76
2022-08-26T03:53:13.458Z,29.74
2022-08-26T03:53:36.200Z,29.74
2022-08-26T03:54:00.554Z,29.67
2022-08-26T03:54:22.345Z,29.72
2022-08-26T03:54:44.098Z,29.74
2022-08-26T03:55:09.640Z,29.75
2022-08-26T03:55:33.051Z,29.75
2022-08-26T03:55:55.053Z,29.78
2022-08-26T03:56:17.721Z,29.73
2022-08-26T03:56:40.027Z,29.80
2022-08-26T03:57:01.985Z,29.78
2022-08-26T03:57:23.681Z,29.81
2022-08-26T03:57:46.412Z,29.67
2022-08-26T03:58:08.216Z,29.77
2022-08-26T03:58:32.091Z,29.75
2022-08-26T03:58:54.188Z,29.72
2022-08-26T03:59:16.909Z,29.66
2022-08-26T03:59:38.938Z,29.65
2022-08-26T04:00:05.622Z,29.62
2022-08-26T04:00:31.698Z,29.66
2022-08-26T04:00:56.224Z,29.62
2022-08-26T04:01:18.037Z,29.60
2022-08-26T04:01:40.918Z,29.59
2022-08-26T04:02:03.951Z,29.61
2022-08-26T04:02:33.313Z,29.61
2022-08-26T04:02:55.162Z,29.62
2022-08-26T04:03:37.543Z,29.48
2022-08-26T04:04:01.306Z,29.61
2022-08-26T04:04:24.449Z,29.52
2022-08-26T04:04:46.315Z,29.65
2022-08-26T04:05:08.855Z,29.66
2022-08-26T04:05:31.556Z,29.67
2022-08-26T04:05:53.350Z,29.65
2022-08-26T04:06:15.084Z,29.56
2022-08-26T04:06:42.931Z,29.64
2022-08-26T04:07:07.320Z,29.68
2022-08-26T04:07:29.933Z,29.67
2022-08-26T04:07:54.055Z,29.69
2022-08-26T04:08:16.047Z,29.69
2022-08-26T04:08:38.970Z,29.72
2022-08-26T04:09:04.322Z,29.71
2022-08-26T04:09:27.584Z,29.71
2022-08-26T04:09:49.369Z,29.74
2022-08-26T04:10:20.132Z,29.73
2022-08-26T04:10:42.282Z,29.75
2022-08-26T04:11:04.333Z,29.73
2022-08-26T04:11:31.262Z,29.69
2022-08-26T04:11:58.589Z,29.68
2022-08-26T04:12:20.913Z,29.79
2022-08-26T04:12:42.633Z,29.81
2022-08-26T04:13:04.463Z,29.83
2022-08-26T04:13:26.337Z,29.72
2022-08-26T04:13:49.727Z,29.81
2022-08-26T04:14:14.217Z,29.81
2022-08-26T04:14:40.964Z,29.39
2022-08-26T04:15:04.506Z,29.77
2022-08-26T04:15:27.046Z,29.81
2022-08-26T04:15:48.824Z,29.73
2022-08-26T04:16:12.383Z,29.83
2022-08-26T04:16:34.919Z,29.82
2022-08-26T04:16:57.337Z,29.83
2022-08-26T04:17:19.418Z,29.83
2022-08-26T04:17:47.886Z,29.84
2022-08-26T04:18:10.629Z,29.82
2022-08-26T04:18:37.206Z,29.82
2022-08-26T04:18:59.186Z,29.83
2022-08-26T04:19:23.224Z,29.71
2022-08-26T04:19:45.027Z,29.83
2022-08-26T04:20:07.807Z,29.81
2022-08-26T04:20:31.891Z,29.74
2022-08-26T04:20:53.951Z,29.69
2022-08-26T04:21:16.652Z,29.63
2022-08-26T04:21:38.589Z,29.69
2022-08-26T04:22:00.272Z,29.68
2022-08-26T04:22:24.934Z,29.61
2022-08-26T04:22:46.861Z,29.66
2022-08-26T04:23:08.703Z,29.67
2022-08-26T04:23:30.827Z,29.67
2022-08-26T04:23:53.869Z,29.65
2022-08-26T04:24:16.603Z,29.67
2022-08-26T04:24:39.544Z,29.58
2022-08-26T04:25:02.579Z,29.68
2022-08-26T04:25:25.722Z,29.65
2022-08-26T04:25:47.539Z,29.67
2022-08-26T04:26:09.560Z,29.67
2022-08-26T04:26:36.964Z,29.69
2022-08-26T04:27:03.475Z,29.68
2022-08-26T04:27:25.290Z,29.67
2022-08-26T04:27:48.301Z,29.69
2022-08-26T04:28:10.604Z,29.64
2022-08-26T04:28:32.365Z,29.71
2022-08-26T04:28:55.153Z,29.71
2022-08-26T04:29:20.192Z,29.69
2022-08-26T04:29:42.267Z,29.66
2022-08-26T04:30:05.250Z,29.51
2022-08-26T04:30:27.612Z,29.72
2022-08-26T04:30:50.752Z,29.63
2022-08-26T04:31:14.522Z,29.64
2022-08-26T04:31:37.514Z,29.61
2022-08-26T04:32:01.159Z,29.72
2022-08-26T04:32:23.581Z,29.44
2022-08-26T04:32:45.870Z,29.72
2022-08-26T04:33:12.945Z,29.72
2022-08-26T04:33:35.445Z,29.61
2022-08-26T04:34:06.132Z,29.76
2022-08-26T04:34:29.138Z,29.76
2022-08-26T04:34:50.821Z,29.79
2022-08-26T04:35:13.947Z,29.71
2022-08-26T04:35:37.063Z,29.81
2022-08-26T04:36:01.141Z,29.78
2022-08-26T04:36:24.638Z,29.79
2022-08-26T04:36:46.403Z,29.78
2022-08-26T04:37:09.819Z,29.77
2022-08-26T04:37:31.543Z,29.76
2022-08-26T04:37:56.028Z,29.77
2022-08-26T04:38:19.887Z,29.68
2022-08-26T04:38:41.571Z,29.80
2022-08-26T04:39:04.741Z,29.71
2022-08-26T04:39:28.469Z,29.70
2022-08-26T04:39:51.486Z,29.77
2022-08-26T04:40:13.505Z,29.77
2022-08-26T04:40:36.666Z,29.77
2022-08-26T04:41:03.208Z,29.79
2022-08-26T04:41:27.794Z,29.80
2022-08-26T04:41:55.057Z,29.75
2022-08-26T04:42:21.027Z,29.80
2022-08-26T04:42:48.860Z,29.79
2022-08-26T04:43:10.908Z,29.76
2022-08-26T04:43:32.561Z,29.76
2022-08-26T04:43:54.436Z,29.75
2022-08-26T04:44:17.182Z,29.77
2022-08-26T04:44:41.051Z,29.74
2022-08-26T04:45:05.925Z,29.72
2022-08-26T04:45:35.433Z,29.81
2022-08-26T04:45:59.514Z,29.82
2022-08-26T04:46:24.452Z,29.80
2022-08-26T04:46:46.321Z,29.83
2022-08-26T04:47:08.197Z,29.86
2022-08-26T04:47:32.507Z,29.87
2022-08-26T04:47:56.672Z,29.70
2022-08-26T04:48:18.625Z,29.74
2022-08-26T04:48:41.305Z,29.50
2022-08-26T04:49:08.405Z,29.84
2022-08-26T04:49:35.960Z,29.64
2022-08-26T04:49:58.079Z,29.86
2022-08-26T04:50:20.673Z,29.89
2022-08-26T04:50:49.354Z,29.92
2022-08-26T04:51:11.691Z,29.89
2022-08-26T04:51:34.384Z,29.88
2022-08-26T04:51:57.773Z,29.90
2022-08-26T04:52:19.440Z,29.89
2022-08-26T04:52:42.217Z,29.86
2022-08-26T04:53:04.423Z,29.86
2022-08-26T04:53:30.034Z,29.78
2022-08-26T04:53:52.462Z,29.88
2022-08-26T04:54:14.787Z,29.89
2022-08-26T04:54:38.256Z,29.80
2022-08-26T04:55:06.503Z,29.89
2022-08-26T04:55:38.769Z,29.88
2022-08-26T04:56:03.921Z,29.84
2022-08-26T04:56:28.761Z,29.86
2022-08-26T04:56:50.724Z,29.79
2022-08-26T04:57:12.623Z,29.86
2022-08-26T04:57:34.483Z,29.87
2022-08-26T04:57:57.198Z,29.87
2022-08-26T04:58:20.768Z,29.88
2022-08-26T04:58:51.498Z,29.89
2022-08-26T04:59:18.191Z,29.88
2022-08-26T04:59:40.247Z,29.88
2022-08-26T05:00:03.167Z,29.92
2022-08-26T05:00:25.229Z,29.90
2022-08-26T05:00:50.698Z,29.87
2022-08-26T05:01:12.653Z,29.87
2022-08-26T05:01:34.938Z,29.87
2022-08-26T05:02:03.812Z,29.87
2022-08-26T05:02:28.116Z,29.86
2022-08-26T05:02:49.765Z,29.81
2022-08-26T05:03:13.968Z,29.81
2022-08-26T05:03:36.241Z,29.82
2022-08-26T05:03:59.149Z,29.85
2022-08-26T05:04:21.961Z,29.83
2022-08-26T05:04:44.144Z,29.86
2022-08-26T05:05:07.679Z,29.87
2022-08-26T05:05:29.368Z,29.88
2022-08-26T05:05:52.652Z,29.84
2022-08-26T05:06:15.283Z,29.83
2022-08-26T05:06:41.189Z,29.89
2022-08-26T05:07:03.259Z,29.88
2022-08-26T05:07:26.011Z,29.89
2022-08-26T05:07:47.863Z,29.89
2022-08-26T05:08:13.801Z,29.92
2022-08-26T05:08:36.443Z,29.88
2022-08-26T05:08:59.094Z,29.92
2022-08-26T05:09:20.731Z,29.92
2022-08-26T05:09:42.396Z,29.91
2022-08-26T05:10:05.658Z,29.91
2022-08-26T05:10:30.579Z,29.87
2022-08-26T05:10:56.020Z,29.86
2022-08-26T05:11:19.132Z,29.90
2022-08-26T05:11:43.840Z,29.90
2022-08-26T05:12:11.281Z,29.86